sensor_id;sensor_type;location;lat;lon;timestamp;P1;durP1;ratioP1;P2;durP2;ratioP2
60478;SDS011;46321;48.398;11.754;2022-10-16T00:01:41;7.35;;;3.30;;
60478;SDS011;46321;48.398;11.754;2022-10-16T00:04:06;6.07;;;3.15;;
60478;SDS011;46321;48.398;11.754;2022-10-16T00:06:32;8.20;;;3.63;;
60478;SDS011;46321;48.398;11.754;2022-10-16T00:08:57;7.60;;;3.15;;
60478;SDS011;46321;48.398;11.754;2022-10-16T00:11:27;9.10;;;3.42;;
60478;SDS011;46321;48.398;11.754;2022-10-16T00:13:55;5.50;;;3.80;;
60478;SDS011;46321;48.398;11.754;2022-10-16T00:16:23;7.57;;;3.22;;
60478;SDS011;46321;48.398;11.754;2022-10-16T00:18:48;4.32;;;2.70;;
60478;SDS011;46321;48.398;11.754;2022-10-16T00:21:15;8.23;;;3.10;;
60478;SDS011;46321;48.398;11.754;2022-10-16T00:23:43;4.22;;;2.70;;
60478;SDS011;46321;48.398;11.754;2022-10-16T00:26:10;7.63;;;3.40;;
60478;SDS011;46321;48.398;11.754;2022-10-16T00:28:37;5.40;;;2.78;;
60478;SDS011;46321;48.398;11.754;2022-10-16T00:31:04;4.78;;;2.83;;
60478;SDS011;46321;48.398;11.754;2022-10-16T00:33:31;5.32;;;3.30;;
60478;SDS011;46321;48.398;11.754;2022-10-16T00:35:59;8.93;;;3.20;;
60478;SDS011;46321;48.398;11.754;2022-10-16T00:38:26;5.93;;;3.28;;
60478;SDS011;46321;48.398;11.754;2022-10-16T00:40:51;5.70;;;3.22;;
60478;SDS011;46321;48.398;11.754;2022-10-16T00:45:57;5.88;;;2.95;;
60478;SDS011;46321;48.398;11.754;2022-10-16T00:48:23;5.80;;;3.58;;
60478;SDS011;46321;48.398;11.754;2022-10-16T00:50:48;7.85;;;4.35;;
60478;SDS011;46321;48.398;11.754;2022-10-16T00:53:14;6.75;;;4.28;;
60478;SDS011;46321;48.398;11.754;2022-10-16T00:55:39;5.97;;;4.38;;
60478;SDS011;46321;48.398;11.754;2022-10-16T00:58:05;8.38;;;4.82;;
60478;SDS011;46321;48.398;11.754;2022-10-16T01:00:30;9.60;;;4.88;;
60478;SDS011;46321;48.398;11.754;2022-10-16T01:02:57;10.70;;;4.57;;
60478;SDS011;46321;48.398;11.754;2022-10-16T01:05:24;10.40;;;5.18;;
60478;SDS011;46321;48.398;11.754;2022-10-16T01:15:51;6.15;;;3.95;;
60478;SDS011;46321;48.398;11.754;2022-10-16T01:21:08;7.25;;;3.55;;
60478;SDS011;46321;48.398;11.754;2022-10-16T01:29:07;9.07;;;3.40;;
60478;SDS011;46321;48.398;11.754;2022-10-16T01:31:40;4.88;;;3.55;;
60478;SDS011;46321;48.398;11.754;2022-10-16T01:34:12;10.38;;;3.65;;
60478;SDS011;46321;48.398;11.754;2022-10-16T01:36:45;9.20;;;3.50;;
60478;SDS011;46321;48.398;11.754;2022-10-16T01:39:27;9.45;;;4.30;;
60478;SDS011;46321;48.398;11.754;2022-10-16T01:42:19;5.43;;;3.72;;
60478;SDS011;46321;48.398;11.754;2022-10-16T01:44:47;8.45;;;4.15;;
60478;SDS011;46321;48.398;11.754;2022-10-16T01:47:15;6.35;;;3.80;;
60478;SDS011;46321;48.398;11.754;2022-10-16T01:49:42;5.95;;;3.10;;
60478;SDS011;46321;48.398;11.754;2022-10-16T01:52:10;12.95;;;3.65;;
60478;SDS011;46321;48.398;11.754;2022-10-16T01:54:40;5.63;;;3.35;;
60478;SDS011;46321;48.398;11.754;2022-10-16T01:57:08;5.60;;;3.47;;
60478;SDS011;46321;48.398;11.754;2022-10-16T01:59:37;7.38;;;3.30;;
60478;SDS011;46321;48.398;11.754;2022-10-16T02:02:08;7.60;;;3.58;;
60478;SDS011;46321;48.398;11.754;2022-10-16T02:04:38;4.38;;;3.15;;
60478;SDS011;46321;48.398;11.754;2022-10-16T02:07:07;9.77;;;3.28;;
60478;SDS011;46321;48.398;11.754;2022-10-16T02:09:33;6.68;;;2.95;;
60478;SDS011;46321;48.398;11.754;2022-10-16T02:12:00;7.00;;;3.00;;
60478;SDS011;46321;48.398;11.754;2022-10-16T02:14:31;9.27;;;3.00;;
60478;SDS011;46321;48.398;11.754;2022-10-16T02:16:57;5.38;;;3.38;;
60478;SDS011;46321;48.398;11.754;2022-10-16T02:19:23;7.50;;;3.20;;
60478;SDS011;46321;48.398;11.754;2022-10-16T02:24:32;8.93;;;2.85;;
60478;SDS011;46321;48.398;11.754;2022-10-16T02:27:08;4.80;;;2.70;;
60478;SDS011;46321;48.398;11.754;2022-10-16T02:29:38;6.35;;;2.83;;
60478;SDS011;46321;48.398;11.754;2022-10-16T02:32:09;4.57;;;2.47;;
60478;SDS011;46321;48.398;11.754;2022-10-16T02:34:37;3.88;;;2.38;;
60478;SDS011;46321;48.398;11.754;2022-10-16T02:37:05;11.38;;;4.00;;
60478;SDS011;46321;48.398;11.754;2022-10-16T02:39:32;5.32;;;3.03;;
60478;SDS011;46321;48.398;11.754;2022-10-16T02:41:58;11.27;;;3.50;;
60478;SDS011;46321;48.398;11.754;2022-10-16T02:44:23;6.70;;;3.20;;
60478;SDS011;46321;48.398;11.754;2022-10-16T02:46:49;6.25;;;3.50;;
60478;SDS011;46321;48.398;11.754;2022-10-16T02:49:14;5.78;;;3.50;;
60478;SDS011;46321;48.398;11.754;2022-10-16T02:51:40;5.28;;;2.95;;
60478;SDS011;46321;48.398;11.754;2022-10-16T02:54:05;4.93;;;3.08;;
60478;SDS011;46321;48.398;11.754;2022-10-16T02:56:30;7.72;;;3.20;;
60478;SDS011;46321;48.398;11.754;2022-10-16T02:58:56;7.85;;;2.95;;
60478;SDS011;46321;48.398;11.754;2022-10-16T03:01:22;4.18;;;3.00;;
60478;SDS011;46321;48.398;11.754;2022-10-16T03:03:47;8.05;;;3.60;;
60478;SDS011;46321;48.398;11.754;2022-10-16T03:06:13;5.45;;;3.53;;
60478;SDS011;46321;48.398;11.754;2022-10-16T03:08:38;6.03;;;3.40;;
60478;SDS011;46321;48.398;11.754;2022-10-16T03:11:03;5.07;;;3.47;;
60478;SDS011;46321;48.398;11.754;2022-10-16T03:13:29;7.25;;;3.28;;
60478;SDS011;46321;48.398;11.754;2022-10-16T03:15:54;7.53;;;3.45;;
60478;SDS011;46321;48.398;11.754;2022-10-16T03:18:19;4.70;;;3.30;;
60478;SDS011;46321;48.398;11.754;2022-10-16T03:20:45;6.45;;;3.20;;
60478;SDS011;46321;48.398;11.754;2022-10-16T03:23:10;7.63;;;3.30;;
60478;SDS011;46321;48.398;11.754;2022-10-16T03:25:35;5.63;;;3.47;;
60478;SDS011;46321;48.398;11.754;2022-10-16T03:28:01;6.00;;;3.55;;
60478;SDS011;46321;48.398;11.754;2022-10-16T03:30:26;5.25;;;3.10;;
60478;SDS011;46321;48.398;11.754;2022-10-16T03:32:51;5.88;;;3.53;;
60478;SDS011;46321;48.398;11.754;2022-10-16T03:35:19;3.90;;;2.95;;
60478;SDS011;46321;48.398;11.754;2022-10-16T03:37:45;4.55;;;3.00;;
60478;SDS011;46321;48.398;11.754;2022-10-16T03:40:11;6.55;;;2.90;;
60478;SDS011;46321;48.398;11.754;2022-10-16T03:42:36;5.55;;;2.70;;
60478;SDS011;46321;48.398;11.754;2022-10-16T03:45:02;5.47;;;2.75;;
60478;SDS011;46321;48.398;11.754;2022-10-16T03:47:27;5.90;;;2.70;;
60478;SDS011;46321;48.398;11.754;2022-10-16T03:49:53;4.18;;;2.50;;
60478;SDS011;46321;48.398;11.754;2022-10-16T03:52:18;7.60;;;3.13;;
60478;SDS011;46321;48.398;11.754;2022-10-16T03:54:43;7.63;;;3.05;;
60478;SDS011;46321;48.398;11.754;2022-10-16T03:57:08;4.55;;;3.13;;
60478;SDS011;46321;48.398;11.754;2022-10-16T03:59:34;6.25;;;2.90;;
60478;SDS011;46321;48.398;11.754;2022-10-16T04:01:59;8.18;;;2.88;;
60478;SDS011;46321;48.398;11.754;2022-10-16T04:04:24;4.68;;;3.08;;
60478;SDS011;46321;48.398;11.754;2022-10-16T04:06:50;8.85;;;2.70;;
60478;SDS011;46321;48.398;11.754;2022-10-16T04:09:15;6.97;;;2.40;;
60478;SDS011;46321;48.398;11.754;2022-10-16T04:11:40;3.45;;;2.50;;
60478;SDS011;46321;48.398;11.754;2022-10-16T04:14:06;3.60;;;2.65;;
60478;SDS011;46321;48.398;11.754;2022-10-16T04:16:31;6.60;;;2.25;;
60478;SDS011;46321;48.398;11.754;2022-10-16T04:18:56;6.43;;;2.50;;
60478;SDS011;46321;48.398;11.754;2022-10-16T04:21:21;3.95;;;2.28;;
60478;SDS011;46321;48.398;11.754;2022-10-16T04:23:47;2.88;;;2.03;;
60478;SDS011;46321;48.398;11.754;2022-10-16T04:26:12;3.95;;;2.33;;
60478;SDS011;46321;48.398;11.754;2022-10-16T04:28:38;3.80;;;2.13;;
60478;SDS011;46321;48.398;11.754;2022-10-16T04:31:04;5.03;;;2.53;;
60478;SDS011;46321;48.398;11.754;2022-10-16T04:33:30;5.75;;;2.60;;
60478;SDS011;46321;48.398;11.754;2022-10-16T04:35:56;6.68;;;2.45;;
60478;SDS011;46321;48.398;11.754;2022-10-16T04:38:22;5.43;;;2.40;;
60478;SDS011;46321;48.398;11.754;2022-10-16T04:40:47;4.45;;;2.67;;
60478;SDS011;46321;48.398;11.754;2022-10-16T04:43:12;3.88;;;2.65;;
60478;SDS011;46321;48.398;11.754;2022-10-16T04:45:38;4.05;;;2.65;;
60478;SDS011;46321;48.398;11.754;2022-10-16T04:48:03;6.03;;;2.90;;
60478;SDS011;46321;48.398;11.754;2022-10-16T04:50:28;7.25;;;3.28;;
60478;SDS011;46321;48.398;11.754;2022-10-16T04:52:53;6.38;;;2.22;;
60478;SDS011;46321;48.398;11.754;2022-10-16T04:55:19;2.72;;;1.65;;
60478;SDS011;46321;48.398;11.754;2022-10-16T04:57:44;2.97;;;2.05;;
60478;SDS011;46321;48.398;11.754;2022-10-16T05:00:10;4.90;;;2.60;;
60478;SDS011;46321;48.398;11.754;2022-10-16T05:02:36;4.47;;;2.33;;
60478;SDS011;46321;48.398;11.754;2022-10-16T05:05:01;3.70;;;2.33;;
60478;SDS011;46321;48.398;11.754;2022-10-16T05:07:27;3.95;;;2.15;;
60478;SDS011;46321;48.398;11.754;2022-10-16T05:09:52;5.38;;;2.40;;
60478;SDS011;46321;48.398;11.754;2022-10-16T05:12:18;3.75;;;2.25;;
60478;SDS011;46321;48.398;11.754;2022-10-16T05:14:43;5.20;;;2.53;;
60478;SDS011;46321;48.398;11.754;2022-10-16T05:17:08;6.93;;;2.08;;
60478;SDS011;46321;48.398;11.754;2022-10-16T05:19:34;5.95;;;2.40;;
60478;SDS011;46321;48.398;11.754;2022-10-16T05:21:59;6.32;;;2.30;;
60478;SDS011;46321;48.398;11.754;2022-10-16T05:24:25;4.32;;;2.03;;
60478;SDS011;46321;48.398;11.754;2022-10-16T05:26:50;3.30;;;1.85;;
60478;SDS011;46321;48.398;11.754;2022-10-16T05:29:16;3.35;;;2.08;;
60478;SDS011;46321;48.398;11.754;2022-10-16T05:31:41;2.97;;;2.10;;
60478;SDS011;46321;48.398;11.754;2022-10-16T05:34:07;2.80;;;1.83;;
60478;SDS011;46321;48.398;11.754;2022-10-16T05:36:32;2.42;;;1.90;;
60478;SDS011;46321;48.398;11.754;2022-10-16T05:38:57;2.85;;;1.65;;
60478;SDS011;46321;48.398;11.754;2022-10-16T05:41:23;6.32;;;1.80;;
60478;SDS011;46321;48.398;11.754;2022-10-16T05:43:50;3.90;;;1.95;;
60478;SDS011;46321;48.398;11.754;2022-10-16T05:46:16;7.28;;;1.85;;
60478;SDS011;46321;48.398;11.754;2022-10-16T05:48:42;3.53;;;2.20;;
60478;SDS011;46321;48.398;11.754;2022-10-16T05:51:08;2.97;;;1.70;;
60478;SDS011;46321;48.398;11.754;2022-10-16T05:53:36;4.88;;;1.77;;
60478;SDS011;46321;48.398;11.754;2022-10-16T05:56:02;2.40;;;1.70;;
60478;SDS011;46321;48.398;11.754;2022-10-16T05:58:30;2.08;;;1.40;;
60478;SDS011;46321;48.398;11.754;2022-10-16T06:00:58;4.05;;;1.65;;
60478;SDS011;46321;48.398;11.754;2022-10-16T06:03:25;4.55;;;1.58;;
60478;SDS011;46321;48.398;11.754;2022-10-16T06:05:51;3.00;;;1.67;;
60478;SDS011;46321;48.398;11.754;2022-10-16T06:08:17;5.90;;;1.58;;
60478;SDS011;46321;48.398;11.754;2022-10-16T06:10:44;2.50;;;1.48;;
60478;SDS011;46321;48.398;11.754;2022-10-16T06:13:10;2.30;;;1.52;;
60478;SDS011;46321;48.398;11.754;2022-10-16T06:15:36;1.70;;;1.40;;
60478;SDS011;46321;48.398;11.754;2022-10-16T06:18:03;4.18;;;1.80;;
60478;SDS011;46321;48.398;11.754;2022-10-16T06:20:29;2.40;;;1.40;;
60478;SDS011;46321;48.398;11.754;2022-10-16T06:22:54;3.08;;;1.27;;
60478;SDS011;46321;48.398;11.754;2022-10-16T06:25:20;5.22;;;1.85;;
60478;SDS011;46321;48.398;11.754;2022-10-16T06:27:45;2.72;;;1.60;;
60478;SDS011;46321;48.398;11.754;2022-10-16T06:30:10;2.92;;;1.70;;
60478;SDS011;46321;48.398;11.754;2022-10-16T06:32:36;2.90;;;1.70;;
60478;SDS011;46321;48.398;11.754;2022-10-16T06:35:01;3.63;;;1.48;;
60478;SDS011;46321;48.398;11.754;2022-10-16T06:37:27;2.70;;;1.58;;
60478;SDS011;46321;48.398;11.754;2022-10-16T06:39:52;3.17;;;1.50;;
60478;SDS011;46321;48.398;11.754;2022-10-16T06:42:17;2.10;;;1.50;;
60478;SDS011;46321;48.398;11.754;2022-10-16T06:44:43;2.33;;;1.65;;
60478;SDS011;46321;48.398;11.754;2022-10-16T06:47:09;2.95;;;1.80;;
60478;SDS011;46321;48.398;11.754;2022-10-16T06:49:34;4.03;;;1.73;;
60478;SDS011;46321;48.398;11.754;2022-10-16T06:51:59;2.85;;;1.60;;
60478;SDS011;46321;48.398;11.754;2022-10-16T06:54:25;5.32;;;2.05;;
60478;SDS011;46321;48.398;11.754;2022-10-16T06:56:50;6.43;;;2.35;;
60478;SDS011;46321;48.398;11.754;2022-10-16T06:59:16;3.72;;;1.83;;
60478;SDS011;46321;48.398;11.754;2022-10-16T07:01:41;2.53;;;1.65;;
60478;SDS011;46321;48.398;11.754;2022-10-16T07:04:06;2.53;;;1.63;;
60478;SDS011;46321;48.398;11.754;2022-10-16T07:06:33;3.33;;;1.33;;
60478;SDS011;46321;48.398;11.754;2022-10-16T07:09:00;3.42;;;1.85;;
60478;SDS011;46321;48.398;11.754;2022-10-16T07:11:27;3.13;;;1.60;;
60478;SDS011;46321;48.398;11.754;2022-10-16T07:13:52;2.08;;;1.30;;
60478;SDS011;46321;48.398;11.754;2022-10-16T07:16:19;3.53;;;1.75;;
60478;SDS011;46321;48.398;11.754;2022-10-16T07:18:46;2.63;;;1.42;;
60478;SDS011;46321;48.398;11.754;2022-10-16T07:21:20;1.95;;;1.40;;
60478;SDS011;46321;48.398;11.754;2022-10-16T07:26:20;1.77;;;1.20;;
60478;SDS011;46321;48.398;11.754;2022-10-16T07:28:46;3.70;;;1.60;;
60478;SDS011;46321;48.398;11.754;2022-10-16T07:31:12;2.30;;;1.33;;
60478;SDS011;46321;48.398;11.754;2022-10-16T07:33:41;3.03;;;1.60;;
60478;SDS011;46321;48.398;11.754;2022-10-16T07:36:09;3.45;;;1.25;;
60478;SDS011;46321;48.398;11.754;2022-10-16T07:38:35;5.78;;;1.50;;
60478;SDS011;46321;48.398;11.754;2022-10-16T07:41:01;2.20;;;1.50;;
60478;SDS011;46321;48.398;11.754;2022-10-16T07:43:28;2.70;;;1.33;;
60478;SDS011;46321;48.398;11.754;2022-10-16T07:45:54;5.65;;;1.30;;
60478;SDS011;46321;48.398;11.754;2022-10-16T07:48:20;2.67;;;1.33;;
60478;SDS011;46321;48.398;11.754;2022-10-16T07:50:47;1.95;;;1.40;;
60478;SDS011;46321;48.398;11.754;2022-10-16T07:53:12;1.42;;;1.17;;
60478;SDS011;46321;48.398;11.754;2022-10-16T07:55:39;5.50;;;1.35;;
60478;SDS011;46321;48.398;11.754;2022-10-16T07:58:05;1.38;;;1.15;;
60478;SDS011;46321;48.398;11.754;2022-10-16T08:00:30;1.75;;;1.42;;
60478;SDS011;46321;48.398;11.754;2022-10-16T08:02:56;1.90;;;1.30;;
60478;SDS011;46321;48.398;11.754;2022-10-16T08:05:24;2.05;;;1.10;;
60478;SDS011;46321;48.398;11.754;2022-10-16T08:07:50;2.33;;;1.20;;
60478;SDS011;46321;48.398;11.754;2022-10-16T08:10:16;2.30;;;1.20;;
60478;SDS011;46321;48.398;11.754;2022-10-16T08:12:43;2.42;;;1.20;;
60478;SDS011;46321;48.398;11.754;2022-10-16T08:15:08;2.83;;;0.95;;
60478;SDS011;46321;48.398;11.754;2022-10-16T08:17:34;1.50;;;1.17;;
60478;SDS011;46321;48.398;11.754;2022-10-16T08:19:59;3.05;;;1.23;;
60478;SDS011;46321;48.398;11.754;2022-10-16T08:22:25;2.30;;;1.10;;
60478;SDS011;46321;48.398;11.754;2022-10-16T08:24:50;3.05;;;1.30;;
60478;SDS011;46321;48.398;11.754;2022-10-16T08:27:15;1.60;;;1.30;;
60478;SDS011;46321;48.398;11.754;2022-10-16T08:29:40;2.50;;;1.20;;
60478;SDS011;46321;48.398;11.754;2022-10-16T08:32:06;3.87;;;1.40;;
60478;SDS011;46321;48.398;11.754;2022-10-16T08:34:31;3.63;;;1.10;;
60478;SDS011;46321;48.398;11.754;2022-10-16T08:36:56;1.53;;;1.20;;
60478;SDS011;46321;48.398;11.754;2022-10-16T08:39:21;2.70;;;1.20;;
60478;SDS011;46321;48.398;11.754;2022-10-16T08:41:59;3.23;;;1.13;;
60478;SDS011;46321;48.398;11.754;2022-10-16T08:47:19;1.40;;;1.10;;
60478;SDS011;46321;48.398;11.754;2022-10-16T08:50:09;2.22;;;1.10;;
60478;SDS011;46321;48.398;11.754;2022-10-16T08:52:35;5.70;;;1.10;;
60478;SDS011;46321;48.398;11.754;2022-10-16T08:55:05;5.03;;;1.10;;
60478;SDS011;46321;48.398;11.754;2022-10-16T08:57:31;2.55;;;0.90;;
60478;SDS011;46321;48.398;11.754;2022-10-16T08:59:58;5.75;;;1.00;;
60478;SDS011;46321;48.398;11.754;2022-10-16T09:13:27;4.33;;;1.20;;
60478;SDS011;46321;48.398;11.754;2022-10-16T09:19:30;3.88;;;1.13;;
60478;SDS011;46321;48.398;11.754;2022-10-16T09:21:52;5.35;;;1.00;;
60478;SDS011;46321;48.398;11.754;2022-10-16T09:24:23;2.10;;;1.13;;
60478;SDS011;46321;48.398;11.754;2022-10-16T09:26:51;1.35;;;0.80;;
60478;SDS011;46321;48.398;11.754;2022-10-16T09:29:17;2.08;;;0.90;;
60478;SDS011;46321;48.398;11.754;2022-10-16T09:31:48;1.35;;;1.10;;
60478;SDS011;46321;48.398;11.754;2022-10-16T09:34:25;1.38;;;1.00;;
60478;SDS011;46321;48.398;11.754;2022-10-16T09:37:04;1.10;;;0.80;;
60478;SDS011;46321;48.398;11.754;2022-10-16T09:39:44;4.82;;;1.05;;
60478;SDS011;46321;48.398;11.754;2022-10-16T09:42:17;2.95;;;1.27;;
60478;SDS011;46321;48.398;11.754;2022-10-16T09:44:51;2.30;;;1.08;;
60478;SDS011;46321;48.398;11.754;2022-10-16T09:47:19;1.73;;;1.00;;
60478;SDS011;46321;48.398;11.754;2022-10-16T09:49:55;5.82;;;1.13;;
60478;SDS011;46321;48.398;11.754;2022-10-16T09:52:31;3.70;;;1.10;;
60478;SDS011;46321;48.398;11.754;2022-10-16T09:57:24;1.25;;;0.90;;
60478;SDS011;46321;48.398;11.754;2022-10-16T09:59:50;1.20;;;1.00;;
60478;SDS011;46321;48.398;11.754;2022-10-16T10:02:20;1.02;;;0.73;;
60478;SDS011;46321;48.398;11.754;2022-10-16T10:04:54;2.03;;;0.75;;
60478;SDS011;46321;48.398;11.754;2022-10-16T10:07:28;3.30;;;0.82;;
60478;SDS011;46321;48.398;11.754;2022-10-16T10:09:59;2.53;;;0.80;;
60478;SDS011;46321;48.398;11.754;2022-10-16T10:12:28;2.22;;;0.90;;
60478;SDS011;46321;48.398;11.754;2022-10-16T10:15:03;0.85;;;0.60;;
60478;SDS011;46321;48.398;11.754;2022-10-16T10:17:44;2.08;;;0.82;;
60478;SDS011;46321;48.398;11.754;2022-10-16T10:20:18;2.78;;;0.80;;
60478;SDS011;46321;48.398;11.754;2022-10-16T10:22:48;1.85;;;0.80;;
60478;SDS011;46321;48.398;11.754;2022-10-16T10:39:03;0.77;;;0.68;;
60478;SDS011;46321;48.398;11.754;2022-10-16T10:44:54;1.05;;;0.80;;
60478;SDS011;46321;48.398;11.754;2022-10-16T10:50:31;2.10;;;0.80;;
60478;SDS011;46321;48.398;11.754;2022-10-16T11:01:50;1.45;;;0.70;;
60478;SDS011;46321;48.398;11.754;2022-10-16T11:07:25;4.30;;;0.80;;
60478;SDS011;46321;48.398;11.754;2022-10-16T11:09:54;3.03;;;0.80;;
60478;SDS011;46321;48.398;11.754;2022-10-16T11:12:46;2.55;;;0.77;;
60478;SDS011;46321;48.398;11.754;2022-10-16T11:15:25;1.43;;;0.83;;
60478;SDS011;46321;48.398;11.754;2022-10-16T11:17:56;2.70;;;0.70;;
60478;SDS011;46321;48.398;11.754;2022-10-16T11:20:30;2.45;;;0.60;;
60478;SDS011;46321;48.398;11.754;2022-10-16T11:23:00;2.05;;;0.95;;
60478;SDS011;46321;48.398;11.754;2022-10-16T11:25:31;2.45;;;1.10;;
60478;SDS011;46321;48.398;11.754;2022-10-16T11:33:39;2.47;;;1.20;;
60478;SDS011;46321;48.398;11.754;2022-10-16T11:36:12;1.73;;;0.93;;
60478;SDS011;46321;48.398;11.754;2022-10-16T11:38:43;5.55;;;1.00;;
60478;SDS011;46321;48.398;11.754;2022-10-16T11:43:52;4.15;;;0.88;;
60478;SDS011;46321;48.398;11.754;2022-10-16T11:46:40;2.42;;;1.25;;
60478;SDS011;46321;48.398;11.754;2022-10-16T11:49:14;1.33;;;1.00;;
60478;SDS011;46321;48.398;11.754;2022-10-16T11:51:43;1.42;;;1.20;;
60478;SDS011;46321;48.398;11.754;2022-10-16T11:57:03;2.15;;;1.55;;
60478;SDS011;46321;48.398;11.754;2022-10-16T11:59:41;1.77;;;1.25;;
60478;SDS011;46321;48.398;11.754;2022-10-16T12:05:06;1.55;;;1.00;;
60478;SDS011;46321;48.398;11.754;2022-10-16T12:07:36;1.70;;;1.15;;
60478;SDS011;46321;48.398;11.754;2022-10-16T12:10:22;1.98;;;1.00;;
60478;SDS011;46321;48.398;11.754;2022-10-16T12:12:49;1.38;;;1.00;;
60478;SDS011;46321;48.398;11.754;2022-10-16T12:17:54;1.40;;;1.00;;
60478;SDS011;46321;48.398;11.754;2022-10-16T12:22:55;1.35;;;1.00;;
60478;SDS011;46321;48.398;11.754;2022-10-16T12:27:58;0.98;;;0.80;;
60478;SDS011;46321;48.398;11.754;2022-10-16T12:30:25;0.90;;;0.80;;
60478;SDS011;46321;48.398;11.754;2022-10-16T12:32:56;1.85;;;0.70;;
60478;SDS011;46321;48.398;11.754;2022-10-16T12:35:25;2.42;;;0.65;;
60478;SDS011;46321;48.398;11.754;2022-10-16T12:37:53;1.65;;;0.70;;
60478;SDS011;46321;48.398;11.754;2022-10-16T12:40:30;1.00;;;0.68;;
60478;SDS011;46321;48.398;11.754;2022-10-16T12:42:57;1.20;;;0.80;;
60478;SDS011;46321;48.398;11.754;2022-10-16T12:45:28;2.75;;;0.90;;
60478;SDS011;46321;48.398;11.754;2022-10-16T12:47:56;2.33;;;0.60;;
60478;SDS011;46321;48.398;11.754;2022-10-16T12:50:30;0.57;;;0.55;;
60478;SDS011;46321;48.398;11.754;2022-10-16T12:53:01;3.42;;;0.60;;
60478;SDS011;46321;48.398;11.754;2022-10-16T12:55:32;3.67;;;0.77;;
60478;SDS011;46321;48.398;11.754;2022-10-16T13:00:57;1.58;;;0.75;;
60478;SDS011;46321;48.398;11.754;2022-10-16T13:06:38;2.50;;;0.30;;
60478;SDS011;46321;48.398;11.754;2022-10-16T13:22:32;2.60;;;0.60;;
60478;SDS011;46321;48.398;11.754;2022-10-16T13:25:23;0.80;;;0.60;;
60478;SDS011;46321;48.398;11.754;2022-10-16T13:28:07;1.02;;;0.63;;
60478;SDS011;46321;48.398;11.754;2022-10-16T13:30:39;2.83;;;0.60;;
60478;SDS011;46321;48.398;11.754;2022-10-16T13:33:07;1.92;;;0.60;;
60478;SDS011;46321;48.398;11.754;2022-10-16T13:35:46;1.33;;;0.70;;
60478;SDS011;46321;48.398;11.754;2022-10-16T13:38:15;0.68;;;0.43;;
60478;SDS011;46321;48.398;11.754;2022-10-16T13:41:01;1.17;;;0.60;;
60478;SDS011;46321;48.398;11.754;2022-10-16T13:46:05;3.53;;;1.25;;
60478;SDS011;46321;48.398;11.754;2022-10-16T13:48:39;2.50;;;0.77;;
60478;SDS011;46321;48.398;11.754;2022-10-16T13:53:38;0.98;;;0.77;;
60478;SDS011;46321;48.398;11.754;2022-10-16T13:56:05;2.63;;;0.70;;
60478;SDS011;46321;48.398;11.754;2022-10-16T13:58:32;3.03;;;0.80;;
60478;SDS011;46321;48.398;11.754;2022-10-16T14:00:59;4.80;;;1.40;;
60478;SDS011;46321;48.398;11.754;2022-10-16T14:03:27;2.42;;;1.00;;
60478;SDS011;46321;48.398;11.754;2022-10-16T14:05:55;1.85;;;1.02;;
60478;SDS011;46321;48.398;11.754;2022-10-16T14:08:23;1.55;;;0.73;;
60478;SDS011;46321;48.398;11.754;2022-10-16T14:10:51;4.03;;;0.80;;
60478;SDS011;46321;48.398;11.754;2022-10-16T14:13:28;0.68;;;0.60;;
60478;SDS011;46321;48.398;11.754;2022-10-16T14:15:56;0.82;;;0.50;;
60478;SDS011;46321;48.398;11.754;2022-10-16T14:18:25;2.65;;;0.70;;
60478;SDS011;46321;48.398;11.754;2022-10-16T14:20:52;1.25;;;0.60;;
60478;SDS011;46321;48.398;11.754;2022-10-16T14:28:35;0.88;;;0.63;;
60478;SDS011;46321;48.398;11.754;2022-10-16T14:31:02;1.70;;;0.50;;
60478;SDS011;46321;48.398;11.754;2022-10-16T14:33:47;1.85;;;0.60;;
60478;SDS011;46321;48.398;11.754;2022-10-16T14:36:13;1.47;;;0.70;;
60478;SDS011;46321;48.398;11.754;2022-10-16T14:38:42;1.05;;;0.60;;
60478;SDS011;46321;48.398;11.754;2022-10-16T14:41:14;1.48;;;0.60;;
60478;SDS011;46321;48.398;11.754;2022-10-16T14:43:41;1.80;;;0.60;;
60478;SDS011;46321;48.398;11.754;2022-10-16T14:46:14;2.97;;;0.70;;
60478;SDS011;46321;48.398;11.754;2022-10-16T14:48:42;0.60;;;0.50;;
60478;SDS011;46321;48.398;11.754;2022-10-16T14:51:14;0.90;;;0.50;;
60478;SDS011;46321;48.398;11.754;2022-10-16T14:53:40;3.22;;;0.70;;
60478;SDS011;46321;48.398;11.754;2022-10-16T14:56:07;3.08;;;1.77;;
60478;SDS011;46321;48.398;11.754;2022-10-16T14:58:34;1.00;;;0.60;;
60478;SDS011;46321;48.398;11.754;2022-10-16T15:01:00;1.10;;;0.63;;
60478;SDS011;46321;48.398;11.754;2022-10-16T15:03:25;1.73;;;0.80;;
60478;SDS011;46321;48.398;11.754;2022-10-16T15:05:50;1.13;;;0.77;;
60478;SDS011;46321;48.398;11.754;2022-10-16T15:08:15;2.37;;;0.67;;
60478;SDS011;46321;48.398;11.754;2022-10-16T15:10:42;2.05;;;0.80;;
60478;SDS011;46321;48.398;11.754;2022-10-16T15:13:11;0.98;;;0.68;;
60478;SDS011;46321;48.398;11.754;2022-10-16T15:15:38;3.67;;;0.90;;
60478;SDS011;46321;48.398;11.754;2022-10-16T15:18:07;48.95;;;25.75;;
60478;SDS011;46321;48.398;11.754;2022-10-16T15:20:34;41.87;;;22.33;;
60478;SDS011;46321;48.398;11.754;2022-10-16T15:23:02;16.33;;;9.27;;
60478;SDS011;46321;48.398;11.754;2022-10-16T15:25:33;5.32;;;2.83;;
60478;SDS011;46321;48.398;11.754;2022-10-16T15:28:07;3.85;;;2.00;;
60478;SDS011;46321;48.398;11.754;2022-10-16T15:30:33;3.00;;;1.90;;
60478;SDS011;46321;48.398;11.754;2022-10-16T15:32:59;5.15;;;1.42;;
60478;SDS011;46321;48.398;11.754;2022-10-16T15:35:24;3.28;;;1.20;;
60478;SDS011;46321;48.398;11.754;2022-10-16T15:37:50;2.88;;;1.00;;
60478;SDS011;46321;48.398;11.754;2022-10-16T15:40:16;4.57;;;0.85;;
60478;SDS011;46321;48.398;11.754;2022-10-16T15:42:42;5.95;;;0.90;;
60478;SDS011;46321;48.398;11.754;2022-10-16T15:45:08;1.70;;;1.02;;
60478;SDS011;46321;48.398;11.754;2022-10-16T15:47:34;2.85;;;1.00;;
60478;SDS011;46321;48.398;11.754;2022-10-16T15:50:21;3.38;;;0.88;;
60478;SDS011;46321;48.398;11.754;2022-10-16T15:52:51;5.40;;;1.17;;
60478;SDS011;46321;48.398;11.754;2022-10-16T15:55:16;1.60;;;1.05;;
60478;SDS011;46321;48.398;11.754;2022-10-16T15:57:43;2.45;;;1.05;;
60478;SDS011;46321;48.398;11.754;2022-10-16T16:00:11;1.92;;;1.20;;
60478;SDS011;46321;48.398;11.754;2022-10-16T16:02:39;2.20;;;1.10;;
60478;SDS011;46321;48.398;11.754;2022-10-16T16:05:05;7.97;;;1.48;;
60478;SDS011;46321;48.398;11.754;2022-10-16T16:07:33;3.50;;;1.40;;
60478;SDS011;46321;48.398;11.754;2022-10-16T16:09:59;3.88;;;1.20;;
60478;SDS011;46321;48.398;11.754;2022-10-16T16:12:24;3.17;;;1.50;;
60478;SDS011;46321;48.398;11.754;2022-10-16T16:14:49;3.13;;;1.10;;
60478;SDS011;46321;48.398;11.754;2022-10-16T16:17:16;3.20;;;1.35;;
60478;SDS011;46321;48.398;11.754;2022-10-16T16:19:41;2.25;;;1.45;;
60478;SDS011;46321;48.398;11.754;2022-10-16T16:22:07;2.50;;;1.70;;
60478;SDS011;46321;48.398;11.754;2022-10-16T16:24:32;2.43;;;1.47;;
60478;SDS011;46321;48.398;11.754;2022-10-16T16:26:57;2.77;;;1.73;;
60478;SDS011;46321;48.398;11.754;2022-10-16T16:29:23;3.27;;;1.50;;
60478;SDS011;46321;48.398;11.754;2022-10-16T16:31:48;3.95;;;1.73;;
60478;SDS011;46321;48.398;11.754;2022-10-16T16:34:13;4.17;;;1.50;;
60478;SDS011;46321;48.398;11.754;2022-10-16T16:36:39;3.95;;;1.98;;
60478;SDS011;46321;48.398;11.754;2022-10-16T16:39:05;2.65;;;1.77;;
60478;SDS011;46321;48.398;11.754;2022-10-16T16:41:31;3.70;;;1.60;;
60478;SDS011;46321;48.398;11.754;2022-10-16T16:44:04;3.92;;;1.90;;
60478;SDS011;46321;48.398;11.754;2022-10-16T16:46:32;3.92;;;1.75;;